createdAt,value
2023-05-25T00:02:17.795Z,13.87
2023-05-25T00:07:20.930Z,13.72
2023-05-25T00:12:23.905Z,13.66
2023-05-25T00:17:32.083Z,13.79
2023-05-25T00:22:35.424Z,13.86
2023-05-25T00:27:38.255Z,13.84
2023-05-25T00:32:42.639Z,13.81
2023-05-25T00:37:46.170Z,13.86
2023-05-25T00:42:48.952Z,13.80
2023-05-25T00:47:54.521Z,13.73
2023-05-25T00:52:57.462Z,13.62
2023-05-25T00:58:01.757Z,13.56
2023-05-25T01:03:11.881Z,13.52
2023-05-25T01:08:16.020Z,13.48
2023-05-25T01:13:20.067Z,13.40
2023-05-25T01:18:24.285Z,13.31
2023-05-25T01:23:32.862Z,13.29
2023-05-25T01:28:40.089Z,13.26
2023-05-25T01:33:44.571Z,13.14
2023-05-25T01:38:48.933Z,13.10
2023-05-25T01:43:53.316Z,13.09
2023-05-25T01:49:04.134Z,13.00
2023-05-25T01:54:13.290Z,12.95
2023-05-25T01:59:17.699Z,12.93
2023-05-25T02:04:22.139Z,12.92
2023-05-25T02:09:28.633Z,12.98
2023-05-25T02:14:31.776Z,13.10
2023-05-25T02:25:02.118Z,13.20
2023-05-25T02:30:28.344Z,13.11
2023-05-25T02:35:33.475Z,13.06
2023-05-25T02:40:38.170Z,12.96
2023-05-25T02:45:41.082Z,12.89
2023-05-25T02:50:43.962Z,12.77
2023-05-25T02:55:51.489Z,12.71
2023-05-25T03:01:00.282Z,12.64
2023-05-25T03:06:04.252Z,12.63
2023-05-25T03:11:09.035Z,12.55
2023-05-25T03:16:12.762Z,12.55
2023-05-25T03:21:15.652Z,12.46
2023-05-25T03:26:21.039Z,12.41
2023-05-25T03:31:25.537Z,12.48
2023-05-25T03:36:30.878Z,12.57
2023-05-25T03:41:35.110Z,12.59
2023-05-25T03:46:39.618Z,12.51
2023-05-25T03:51:42.733Z,12.48
2023-05-25T03:56:47.261Z,12.47
2023-05-25T04:01:50.198Z,12.46
2023-05-25T04:06:53.157Z,12.44
2023-05-25T04:11:57.383Z,12.43
2023-05-25T04:17:00.390Z,12.46
2023-05-25T04:22:03.391Z,12.41
2023-05-25T04:27:07.944Z,12.43
2023-05-25T04:32:14.557Z,12.47
2023-05-25T04:37:27.379Z,12.50
2023-05-25T04:42:33.486Z,12.56
2023-05-25T04:47:37.621Z,12.63
2023-05-25T04:52:40.591Z,12.72
2023-05-25T04:57:47.134Z,12.78
2023-05-25T05:02:50.376Z,12.84
2023-05-25T05:07:53.978Z,12.99
2023-05-25T05:12:58.668Z,13.15
2023-05-25T05:18:01.821Z,13.25
2023-05-25T05:23:05.142Z,13.42
2023-05-25T05:28:10.834Z,13.79
2023-05-25T05:33:16.689Z,13.96
2023-05-25T05:38:22.261Z,13.98
2023-05-25T05:43:26.542Z,13.99
2023-05-25T05:48:29.372Z,14.01
2023-05-25T05:53:32.607Z,14.07
2023-05-25T05:58:37.560Z,14.13
2023-05-25T06:03:41.486Z,14.28
2023-05-25T06:08:44.860Z,14.39
2023-05-25T06:13:49.974Z,14.62
2023-05-25T06:18:53.793Z,15.39
2023-05-25T06:23:58.156Z,16.99
2023-05-25T06:29:03.147Z,18.25
2023-05-25T06:34:06.996Z,19.05
2023-05-25T06:39:10.334Z,18.12
2023-05-25T06:44:15.133Z,18.00
2023-05-25T06:49:22.926Z,17.72
2023-05-25T06:54:26.979Z,18.68
2023-05-25T06:59:32.086Z,20.11
2023-05-25T07:04:38.690Z,20.46
2023-05-25T07:09:41.727Z,21.16
2023-05-25T07:14:48.219Z,21.91
2023-05-25T07:19:51.367Z,21.32
2023-05-25T07:24:54.445Z,20.50
2023-05-25T07:29:58.995Z,19.72
2023-05-25T07:35:02.328Z,19.27
2023-05-25T07:40:06.305Z,18.87
2023-05-25T07:45:12.503Z,18.49
2023-05-25T07:50:15.644Z,18.13
2023-05-25T07:55:20.116Z,17.79
2023-05-25T08:00:24.504Z,17.45
2023-05-25T08:05:27.387Z,17.24
2023-05-25T08:10:32.512Z,17.18
2023-05-25T08:15:36.845Z,17.24
2023-05-25T08:20:39.947Z,17.21
2023-05-25T08:25:43.074Z,17.03
2023-05-25T08:30:47.679Z,16.96
2023-05-25T08:35:52.744Z,17.14
2023-05-25T08:41:05.225Z,17.56
2023-05-25T08:46:10.502Z,17.93
2023-05-25T08:51:14.891Z,18.26
2023-05-25T08:56:20.965Z,18.23
2023-05-25T09:01:28.451Z,18.15
2023-05-25T09:06:33.960Z,18.41
2023-05-25T09:11:39.969Z,19.06
2023-05-25T09:16:45.585Z,18.87
2023-05-25T09:21:48.808Z,18.84
2023-05-25T09:26:52.315Z,18.65
2023-05-25T09:31:57.434Z,18.34
2023-05-25T09:37:00.628Z,18.32
2023-05-25T09:42:03.581Z,18.08
2023-05-25T09:47:08.290Z,18.30
2023-05-25T09:52:13.371Z,18.68
2023-05-25T09:57:17.195Z,18.85
2023-05-25T10:02:21.536Z,18.96
2023-05-25T10:07:24.541Z,19.26
2023-05-25T10:12:27.855Z,19.38
2023-05-25T10:17:33.348Z,19.40
2023-05-25T10:22:41.242Z,19.52
2023-05-25T10:27:49.060Z,19.75
2023-05-25T10:32:53.603Z,19.91
2023-05-25T10:37:59.850Z,20.10
2023-05-25T10:43:02.991Z,20.34
2023-05-25T10:48:07.604Z,20.48
2023-05-25T10:53:14.145Z,20.60
2023-05-25T10:58:18.347Z,20.68
2023-05-25T11:03:22.989Z,21.15
2023-05-25T11:08:52.514Z,20.96
2023-05-25T11:13:55.671Z,21.11
2023-05-25T11:19:01.020Z,20.91
2023-05-25T11:24:12.675Z,21.11
2023-05-25T11:29:16.841Z,20.90
2023-05-25T11:34:24.297Z,20.70
2023-05-25T11:39:27.199Z,20.76
2023-05-25T11:44:31.265Z,21.42
2023-05-25T11:49:36.095Z,21.28
2023-05-25T11:54:41.189Z,22.14
2023-05-25T11:59:49.376Z,21.78
2023-05-25T12:04:58.371Z,21.92
2023-05-25T12:10:08.060Z,21.10
2023-05-25T12:15:12.084Z,21.28
2023-05-25T12:20:17.792Z,21.11
2023-05-25T12:25:21.961Z,21.17
2023-05-25T12:30:30.002Z,21.22
2023-05-25T12:35:47.354Z,21.02
2023-05-25T12:41:05.953Z,21.71
2023-05-25T12:46:08.934Z,21.49
2023-05-25T12:51:17.492Z,21.60
2023-05-25T12:56:20.482Z,21.68
2023-05-25T13:01:23.409Z,21.90
2023-05-25T13:06:27.714Z,21.99
2023-05-25T13:11:30.593Z,21.49
2023-05-25T13:16:33.986Z,21.35
2023-05-25T13:21:38.309Z,21.42
2023-05-25T13:26:41.178Z,21.31
2023-05-25T13:31:44.134Z,21.04
2023-05-25T13:36:48.765Z,20.89
2023-05-25T13:41:51.732Z,21.49
2023-05-25T13:46:55.309Z,21.75
2023-05-25T13:51:59.750Z,22.04
2023-05-25T13:57:02.864Z,22.08
2023-05-25T14:02:06.408Z,21.76
2023-05-25T14:07:11.009Z,21.96
2023-05-25T14:12:14.477Z,21.36
2023-05-25T14:17:17.732Z,21.75
2023-05-25T14:22:22.166Z,21.90
2023-05-25T14:27:25.315Z,21.84
2023-05-25T14:32:28.283Z,21.71
2023-05-25T14:37:32.910Z,21.48
2023-05-25T14:42:35.896Z,22.01
2023-05-25T14:47:38.809Z,22.18
2023-05-25T14:52:43.237Z,21.80
2023-05-25T14:57:46.133Z,21.59
2023-05-25T15:02:49.141Z,21.44
2023-05-25T15:07:53.562Z,21.25
2023-05-25T15:12:56.549Z,21.11
2023-05-25T15:17:59.607Z,20.94
2023-05-25T15:23:04.207Z,20.92
2023-05-25T15:28:07.286Z,20.79
2023-05-25T15:33:10.659Z,20.24
2023-05-25T15:38:14.952Z,20.30
2023-05-25T15:43:18.358Z,20.81
2023-05-25T15:48:21.356Z,20.35
2023-05-25T15:53:26.008Z,20.49
2023-05-25T15:58:28.948Z,20.36
2023-05-25T16:03:31.930Z,20.21
2023-05-25T16:08:36.229Z,20.03
2023-05-25T16:13:39.251Z,19.85
2023-05-25T16:18:42.314Z,19.81
2023-05-25T16:23:46.684Z,19.69
2023-05-25T16:28:49.687Z,19.62
2023-05-25T16:33:52.596Z,19.35
2023-05-25T16:38:56.840Z,19.54
2023-05-25T16:44:00.640Z,19.42
2023-05-25T16:49:03.617Z,19.47
2023-05-25T16:54:08.118Z,19.37
2023-05-25T16:59:11.047Z,19.38
2023-05-25T17:04:14.512Z,18.98
2023-05-25T17:09:19.107Z,18.94
2023-05-25T17:14:22.121Z,18.60
2023-05-25T17:19:25.249Z,18.67
2023-05-25T17:24:29.511Z,18.54
2023-05-25T17:29:32.667Z,18.42
2023-05-25T17:34:35.635Z,18.37
2023-05-25T17:39:40.397Z,18.10
2023-05-25T17:44:43.629Z,18.16
2023-05-25T17:49:46.776Z,18.11
2023-05-25T17:54:51.468Z,17.79
2023-05-25T17:59:54.342Z,17.67
2023-05-25T18:04:57.854Z,17.52
2023-05-25T18:10:02.489Z,17.37
2023-05-25T18:15:06.472Z,17.23
2023-05-25T18:20:10.915Z,17.16
2023-05-25T18:25:15.471Z,17.04
2023-05-25T18:30:18.469Z,16.92
2023-05-25T18:35:21.548Z,16.81
2023-05-25T18:40:49.275Z,16.77
2023-05-25T18:45:52.270Z,16.55
2023-05-25T18:50:55.312Z,16.18
2023-05-25T18:55:59.678Z,16.25
2023-05-25T19:01:02.557Z,16.18
2023-05-25T19:06:06.093Z,15.91
2023-05-25T19:11:10.466Z,15.65
2023-05-25T19:16:13.495Z,15.67
2023-05-25T19:21:16.675Z,15.53
2023-05-25T19:26:21.266Z,15.35
2023-05-25T19:31:24.275Z,15.27
2023-05-25T19:36:27.296Z,15.17
2023-05-25T19:41:31.671Z,14.97
2023-05-25T19:46:36.688Z,14.82
2023-05-25T19:51:39.591Z,14.70
2023-05-25T19:56:44.284Z,14.63
2023-05-25T20:01:47.431Z,14.49
2023-05-25T20:06:50.815Z,14.39
2023-05-25T20:11:55.628Z,14.30
2023-05-25T20:16:58.645Z,14.29
2023-05-25T20:22:02.483Z,14.12
2023-05-25T20:27:07.074Z,14.06
2023-05-25T20:32:11.167Z,13.94
2023-05-25T20:37:17.266Z,13.84
2023-05-25T20:42:21.597Z,13.81
2023-05-25T20:47:24.943Z,13.72
2023-05-25T20:52:28.080Z,13.66
2023-05-25T20:57:33.137Z,13.63
2023-05-25T21:02:36.205Z,13.65
2023-05-25T21:07:39.220Z,13.52
2023-05-25T21:12:43.495Z,13.45
2023-05-25T21:17:46.502Z,13.48
2023-05-25T21:22:49.358Z,13.41
2023-05-25T21:27:55.442Z,13.34
2023-05-25T21:32:59.935Z,13.29
2023-05-25T21:38:02.905Z,13.25
2023-05-25T21:43:09.122Z,13.21
2023-05-25T21:48:12.125Z,13.13
2023-05-25T21:53:15.009Z,13.02
2023-05-25T21:58:19.729Z,13.06
2023-05-25T22:03:22.667Z,12.98
2023-05-25T22:08:25.782Z,12.88
2023-05-25T22:13:30.120Z,12.90
2023-05-25T22:18:32.979Z,12.95
2023-05-25T22:23:35.887Z,12.74
2023-05-25T22:28:40.318Z,12.82
2023-05-25T22:33:43.207Z,12.85
2023-05-25T22:38:46.818Z,12.88
2023-05-25T22:43:51.076Z,12.86
2023-05-25T22:48:53.991Z,12.81
2023-05-25T22:53:56.881Z,12.77
2023-05-25T22:59:01.148Z,12.71
2023-05-25T23:04:04.120Z,12.58
2023-05-25T23:09:07.219Z,12.65
2023-05-25T23:14:11.737Z,12.62
2023-05-25T23:19:14.653Z,12.51
2023-05-25T23:24:17.508Z,12.50
2023-05-25T23:29:21.901Z,12.44
2023-05-25T23:34:24.792Z,12.37
2023-05-25T23:39:27.653Z,12.38
2023-05-25T23:44:31.963Z,12.35
2023-05-25T23:49:35.112Z,12.25
2023-05-25T23:54:37.992Z,12.27
2023-05-25T23:59:42.227Z,12.31
